Kaikoura, New Zealand
Current Conditions -  °F | °C
As of 3:30 AM on Friday 28 Nov 2014 (Local Time) from NZWN Reporting Station
Clear Clear  
Wind Chill: 57°   Ceiling: Unl
Heat Index: 57°   Visibility: 6mi
Dew Point: 43°   Wind: 14mph
Humidity: 59%   Direction: 330°NNW
Pressure: 29.62"   Gusts: NA
Location:  42.4°S, 173.68°E
Report Text: NZWN 271530Z AUTO 33012KT 9999 NCD 14/06 Q1003 NOSIG
Loading
Personal Weather Stations






























Interactive Weather Map New forecast layout! Learn more

10-Day Weather Forecast

Advertisements
Track Severe Weather on mobile